KBFI/BFI METAR and TAF weather

Enter ICAO airport designator
Station Type Date Time Source
KBFI METAR 2018/07/15 20:53 UTC NOAA

KBFI 152053Z 31008G16KT 10SM CLR 30/09 A2998 RMK AO2 SLP152 T03000089 58012 $


Station Type Date Time Source
KBFI Decoded METAR 2018/07/15 20:53 UTC NOAA

SEATTLE BOEING FIELD, WA, United States (KBFI) 47-33N 122-19W 4M
Jul 15, 2018 - 04:53 PM EDT / 2018.07.15 2053 UTC
Wind: from the NW (310 degrees) at 9 MPH (8 KT) gusting to 18 MPH (16 KT):0
Visibility: 10 mile(s):0
Sky conditions: clear
Temperature: 86.0 F (30.0 C)
Dew Point: 48.0 F (8.9 C)
Relative Humidity: 26%
Pressure (altimeter): 29.98 in. Hg (1015 hPa)
Pressure tendency: 0.04 inches (1.2 hPa) lower than three hours ago
ob: KBFI 152053Z 31008G16KT 10SM CLR 30/09 A2998 RMK AO2 SLP152 T03000089 58012
cycle: 21

Station Type Date Time Source
KBFI TAF 2018/07/15 21:06 UTC NOAA

TAF
AMD KBFI 152103Z 1521/1618 31008G16KT P6SM SKC
FM160500 02005KT P6SM SKC
FM161000 00000KT P6SM SKC


Example: see airport list